createdAt,value
2024-03-16T00:01:33.142Z,74.16
2024-03-16T00:04:00.060Z,74.28
2024-03-16T00:06:26.650Z,74.55
2024-03-16T00:08:53.215Z,74.28
2024-03-16T00:11:19.716Z,73.77
2024-03-16T00:13:46.293Z,74.30
2024-03-16T00:16:13.028Z,74.46
2024-03-16T00:18:39.648Z,74.05
2024-03-16T00:21:06.221Z,74.09
2024-03-16T00:23:32.769Z,74.60
2024-03-16T00:25:59.285Z,74.48
2024-03-16T00:28:25.843Z,74.83
2024-03-16T00:30:52.434Z,74.39
2024-03-16T00:33:19.096Z,75.05
2024-03-16T00:35:45.645Z,75.00
2024-03-16T00:38:12.884Z,75.40
2024-03-16T00:40:39.408Z,74.93
2024-03-16T00:43:06.438Z,75.04
2024-03-16T00:45:33.114Z,75.23
2024-03-16T00:48:01.255Z,75.16
2024-03-16T00:50:27.904Z,75.36
2024-03-16T00:52:54.460Z,75.86
2024-03-16T00:55:21.035Z,75.48
2024-03-16T00:57:47.537Z,75.17
2024-03-16T01:00:15.789Z,75.92
2024-03-16T01:02:42.714Z,75.43
2024-03-16T01:05:09.529Z,75.94
2024-03-16T01:07:36.056Z,75.51
2024-03-16T01:10:02.677Z,75.64
2024-03-16T01:12:29.345Z,75.05
2024-03-16T01:14:56.221Z,75.72
2024-03-16T01:17:22.714Z,75.11
2024-03-16T01:19:49.264Z,74.73
2024-03-16T01:22:15.860Z,75.23
2024-03-16T01:24:42.454Z,75.03
2024-03-16T01:27:09.025Z,74.96
2024-03-16T01:29:35.651Z,74.71
2024-03-16T01:32:05.417Z,74.62
2024-03-16T01:34:32.703Z,74.46
2024-03-16T01:36:59.322Z,73.99
2024-03-16T01:39:26.002Z,74.06
2024-03-16T01:41:52.781Z,74.01
2024-03-16T01:44:19.320Z,74.00
2024-03-16T01:46:49.078Z,73.79
2024-03-16T01:49:15.683Z,73.54
2024-03-16T01:51:42.638Z,73.83
2024-03-16T01:54:11.669Z,73.96
2024-03-16T01:56:38.586Z,73.55
2024-03-16T01:59:05.609Z,73.73
2024-03-16T02:01:32.738Z,73.54
2024-03-16T02:03:59.539Z,73.68
2024-03-16T02:06:28.288Z,73.40
2024-03-16T02:08:55.087Z,73.48
2024-03-16T02:11:22.671Z,73.28
2024-03-16T02:13:49.943Z,73.31
2024-03-16T02:16:16.905Z,73.29
2024-03-16T02:18:43.890Z,73.00
2024-03-16T02:21:10.956Z,73.16
2024-03-16T02:23:37.720Z,72.87
2024-03-16T02:26:05.873Z,72.84
2024-03-16T02:28:32.574Z,73.08
2024-03-16T02:30:59.801Z,73.00
2024-03-16T02:33:28.632Z,73.15
2024-03-16T02:35:56.515Z,72.92
2024-03-16T02:38:23.652Z,73.04
2024-03-16T02:40:50.264Z,73.00
2024-03-16T02:43:16.899Z,73.76
2024-03-16T02:45:43.502Z,73.39
2024-03-16T02:48:11.059Z,73.76
2024-03-16T02:50:37.756Z,74.29
2024-03-16T02:53:04.908Z,74.28
2024-03-16T02:55:31.536Z,74.80
2024-03-16T02:57:58.236Z,75.55
2024-03-16T03:00:25.527Z,75.99
2024-03-16T03:02:52.873Z,76.07
2024-03-16T03:05:22.276Z,75.94
2024-03-16T03:07:49.357Z,76.47
2024-03-16T03:10:15.952Z,76.50
2024-03-16T03:12:42.559Z,76.54
2024-03-16T03:15:10.639Z,76.48
2024-03-16T03:17:37.380Z,76.78
2024-03-16T03:20:06.610Z,77.24
2024-03-16T03:22:33.833Z,77.09
2024-03-16T03:25:00.635Z,77.46
2024-03-16T03:27:27.317Z,77.25
2024-03-16T03:29:53.874Z,77.47
2024-03-16T03:32:20.366Z,77.29
2024-03-16T03:34:47.839Z,78.04
2024-03-16T03:37:14.379Z,77.87
2024-03-16T03:39:41.029Z,78.01
2024-03-16T03:42:07.803Z,77.84
2024-03-16T03:44:39.566Z,77.77
2024-03-16T03:47:08.325Z,78.23
2024-03-16T03:49:36.840Z,78.14
2024-03-16T03:52:05.702Z,78.21
2024-03-16T03:54:33.162Z,78.31
2024-03-16T03:57:00.215Z,78.83
2024-03-16T03:59:26.769Z,78.77
2024-03-16T04:01:53.516Z,78.39
2024-03-16T04:04:20.118Z,79.23
2024-03-16T04:06:47.782Z,79.22
2024-03-16T04:09:14.978Z,78.91
2024-03-16T04:11:41.497Z,79.22
2024-03-16T04:14:08.887Z,79.02
2024-03-16T04:16:35.447Z,79.13
2024-03-16T04:19:02.038Z,79.16
2024-03-16T04:21:28.737Z,79.46
2024-03-16T04:23:55.297Z,79.43
2024-03-16T04:26:21.820Z,79.18
2024-03-16T04:28:48.365Z,79.42
2024-03-16T04:31:14.946Z,80.22
2024-03-16T04:33:41.512Z,80.25
2024-03-16T04:36:09.761Z,80.51
2024-03-16T04:38:36.543Z,80.30
2024-03-16T04:41:03.586Z,81.14
2024-03-16T04:43:30.076Z,80.53
2024-03-16T04:45:56.712Z,80.95
2024-03-16T04:48:23.243Z,81.29
2024-03-16T04:50:49.739Z,81.12
2024-03-16T04:53:16.661Z,81.55
2024-03-16T04:55:43.190Z,80.91
2024-03-16T04:58:09.859Z,80.87
2024-03-16T05:00:36.839Z,81.46
2024-03-16T05:03:05.394Z,80.79
2024-03-16T05:05:31.961Z,81.87
2024-03-16T05:07:58.467Z,81.35
2024-03-16T05:10:26.173Z,81.29
2024-03-16T05:12:53.008Z,81.09
2024-03-16T05:15:19.533Z,81.09
2024-03-16T05:17:46.051Z,81.72
2024-03-16T05:20:13.013Z,81.30
2024-03-16T05:22:39.513Z,81.72
2024-03-16T05:25:07.143Z,81.46
2024-03-16T05:27:34.304Z,81.85
2024-03-16T05:30:00.853Z,81.93
2024-03-16T05:32:27.399Z,81.51
2024-03-16T05:34:53.937Z,81.93
2024-03-16T05:37:20.434Z,81.60
2024-03-16T05:39:47.090Z,81.97
2024-03-16T05:42:14.279Z,81.39
2024-03-16T05:44:40.835Z,81.38
2024-03-16T05:47:08.148Z,81.89
2024-03-16T05:49:35.179Z,80.85
2024-03-16T05:52:01.944Z,80.46
2024-03-16T05:54:32.431Z,80.52
2024-03-16T05:56:59.131Z,80.51
2024-03-16T05:59:25.827Z,80.92
2024-03-16T06:01:53.172Z,79.54
2024-03-16T06:04:21.080Z,80.20
2024-03-16T06:06:48.097Z,80.09
2024-03-16T06:09:14.734Z,79.33
2024-03-16T06:11:41.790Z,78.86
2024-03-16T06:14:11.101Z,78.95
2024-03-16T06:16:39.006Z,78.40
2024-03-16T06:19:06.204Z,78.18
2024-03-16T06:21:32.936Z,77.93
2024-03-16T06:23:59.538Z,77.81
2024-03-16T06:26:29.174Z,77.22
2024-03-16T06:28:57.406Z,77.24
2024-03-16T06:31:33.389Z,76.67
2024-03-16T06:34:00.279Z,76.35
2024-03-16T06:36:27.036Z,76.31
2024-03-16T06:38:53.628Z,76.50
2024-03-16T06:41:20.240Z,75.60
2024-03-16T06:43:46.786Z,76.13
2024-03-16T06:46:13.524Z,76.07
2024-03-16T06:48:40.132Z,76.07
2024-03-16T06:51:07.782Z,75.78
2024-03-16T06:53:34.289Z,75.63
2024-03-16T06:56:00.839Z,75.31
2024-03-16T06:58:27.584Z,75.69
2024-03-16T07:00:54.154Z,75.25
2024-03-16T07:03:21.306Z,75.06
2024-03-16T07:05:47.826Z,75.11
2024-03-16T07:08:18.063Z,74.87
2024-03-16T07:10:46.328Z,74.49
2024-03-16T07:13:13.539Z,74.47
2024-03-16T07:15:40.552Z,74.46
2024-03-16T07:18:07.232Z,74.27
2024-03-16T07:20:33.953Z,74.14
2024-03-16T07:23:00.452Z,73.87
2024-03-16T07:25:27.049Z,73.79
2024-03-16T07:27:53.994Z,73.62
2024-03-16T07:30:20.955Z,73.53
2024-03-16T07:32:48.729Z,73.20
2024-03-16T07:35:15.302Z,72.93
2024-03-16T07:37:41.813Z,72.88
2024-03-16T07:40:14.518Z,72.74
2024-03-16T07:42:42.824Z,72.64
2024-03-16T07:45:09.697Z,72.22
2024-03-16T07:47:36.346Z,71.86
2024-03-16T07:50:04.405Z,72.17
2024-03-16T07:52:30.925Z,72.03
2024-03-16T07:54:57.545Z,71.75
2024-03-16T07:57:25.398Z,71.69
2024-03-16T07:59:51.973Z,71.74
2024-03-16T08:02:20.868Z,71.63
2024-03-16T08:04:48.147Z,71.14
2024-03-16T08:07:14.962Z,70.96
2024-03-16T08:09:41.565Z,70.83
2024-03-16T08:12:08.777Z,70.63
2024-03-16T08:14:37.984Z,70.34
2024-03-16T08:17:04.933Z,70.13
2024-03-16T08:19:32.548Z,70.57
2024-03-16T08:21:59.064Z,70.61
2024-03-16T08:24:25.589Z,70.54
2024-03-16T08:26:53.043Z,70.71
2024-03-16T08:29:19.680Z,70.79
2024-03-16T08:31:46.194Z,70.79
2024-03-16T08:34:13.567Z,70.63
2024-03-16T08:36:41.832Z,70.73
2024-03-16T08:39:09.097Z,70.59
2024-03-16T08:41:37.540Z,70.37
2024-03-16T08:44:05.553Z,69.56
2024-03-16T08:46:32.849Z,69.59
2024-03-16T08:48:59.977Z,68.73
2024-03-16T08:51:26.778Z,68.43
2024-03-16T08:53:54.643Z,67.87
2024-03-16T08:56:21.382Z,66.54
2024-03-16T08:58:48.017Z,66.55
2024-03-16T09:01:14.713Z,65.58
2024-03-16T09:03:41.399Z,65.24
2024-03-16T09:06:08.775Z,64.77
2024-03-16T09:08:35.501Z,63.19
2024-03-16T09:11:02.078Z,61.79
2024-03-16T09:13:30.790Z,59.26
2024-03-16T09:15:57.795Z,55.70
2024-03-16T09:18:25.300Z,52.07
2024-03-16T09:20:51.920Z,48.79
2024-03-16T09:23:18.484Z,46.18
2024-03-16T09:25:47.844Z,44.23
2024-03-16T09:28:15.160Z,44.16
2024-03-16T09:30:46.282Z,44.16
2024-03-16T09:33:13.156Z,44.57
2024-03-16T09:35:43.257Z,45.71
2024-03-16T09:38:11.146Z,45.95
2024-03-16T09:40:44.034Z,46.54
